Tottenham, Canada
Current Conditions -  °F | °C
As of 3:00 AM on Wednesday 26 Nov 2014 (Local Time) from CYBN Reporting Station
Overcast Overcast  
Wind Chill: 30°   Ceiling: 3500
Heat Index: 30°   Visibility: 9mi
Dew Point: 27°   Wind: 2mph
Humidity: 86%   Direction: 310°NW
Pressure: 30.17"   Gusts: NA
Location:  44.02°N, 79.8°W
Report Text: CYBN 260800Z AUTO 31002KT 9SM OVC035 M01/M03 A3017 RMK SLP226
Loading
Personal Weather Stations






























Interactive Weather Map New forecast layout! Learn more

10-Day Weather Forecast

Advertisements
Track Severe Weather on mobile